Mount Vernon, IN (47620)

9:14 AM CDT on August 30, 2015 (GMT -0500)
KINMTVER2 | | Change Station
CLOSE
Current Station
Personal Weather Station
Location: Mt. Vernon, IN
Elevation: 389 ft
Nearby Weather Stations

Elev 389 ft 37.94 °N, 87.89 °W | Updated 2 seconds ago

Overcast
Overcast
77.5 °F
Feels Like 79 °F
N
3.5
Wind Variable Wind from SSE
Gusts 3.5 mph

Today
High -- | Low -- °F
--% Chance of Precip.
Yesterday
High -- | Low -- °F
Precip. -- in
6:19 AM 7:24 PM
Full, 99% visible
Pressure 30.07 in
Visibility 10.0 miles
Clouds Few 6500 ft
Overcast 11000 ft
Heat Index 79 °F
Dew Point 75 °F
Humidity 93%
Rainfall 0.00 in
Snow Depth Not available.
UV 1 out of 12
Pollen 9.90 out of 12
Air Quality Not available.
Flu Activity Not available.
METAR KEHR 301355Z AUTO 19003KT 10SM FEW065 OVC110 23/19 A3007 RMK AO1
Pressure 30.07 in
Visibility 10.0 miles
Clouds Few 6500 ft
Overcast 11000 ft
Heat Index 79 °F
Dew Point 75 °F
Humidity 93%
Rainfall 0.00 in
Snow Depth Not available.
UV 1 out of 12
Pollen 9.90 out of 12
Air Quality Not available.
Flu Activity Not available.
METAR KEHR 301355Z AUTO 19003KT 10SM FEW065 OVC110 23/19 A3007 RMK AO1

10-Day Weather Forecast

×

Almanac

Astronomy

Aug. 30, 2015 Rise Set
Actual Time
Civil Twilight
Nautical Twilight
Astronomical Twilight
Moon
Length of Visible Light
Length of Day
Tomorrow will be .
, % of the Moon is Illuminated

Today's Extremes

State Highs State Lows

Community

WunderPhotos

Upload Photos

1,850,968 photos uploaded!

WunderBlogs® & News

Nearby

Air Quality

  Air Quality AQ Index Pollutant
Not available.

Snow Depth

Station Depth Elevation

Earthquake Activity

City Distance Mag. Time & Date
Minimum magnitude displayed is 2.5.

Coastal Water Temperatures

Place Temperature

Stations

Nearby Weather Stations

Station Location Temp. Windchill Dew Point Humidity Wind Precip. Elev Updated Type